createdAt,value
2022-08-27T00:01:50.145Z,14.48
2022-08-27T00:04:18.761Z,23.70
2022-08-27T00:06:46.925Z,19.75
2022-08-27T00:09:15.016Z,14.40
2022-08-27T00:11:45.075Z,15.27
2022-08-27T00:14:15.373Z,18.00
2022-08-27T00:16:43.885Z,16.23
2022-08-27T00:19:12.665Z,18.27
2022-08-27T00:21:40.546Z,17.75
2022-08-27T00:24:08.533Z,18.50
2022-08-27T00:26:40.217Z,17.75
2022-08-27T00:29:11.130Z,24.92
2022-08-27T00:31:40.699Z,18.70
2022-08-27T00:34:13.016Z,15.68
2022-08-27T00:36:41.537Z,17.08
2022-08-27T00:39:09.445Z,19.95
2022-08-27T00:41:38.248Z,16.02
2022-08-27T00:44:07.535Z,24.33
2022-08-27T00:46:38.922Z,22.73
2022-08-27T00:49:17.007Z,20.02
2022-08-27T00:51:47.112Z,29.13
2022-08-27T00:54:18.675Z,20.83
2022-08-27T00:56:51.802Z,20.98
2022-08-27T00:59:23.894Z,16.17
2022-08-27T01:02:10.151Z,18.92
2022-08-27T01:04:41.813Z,23.17
2022-08-27T01:09:40.365Z,17.00
2022-08-27T01:12:08.747Z,14.32
2022-08-27T01:14:37.271Z,14.95
2022-08-27T01:17:09.290Z,16.83
2022-08-27T01:19:43.715Z,17.55
2022-08-27T01:22:21.893Z,22.58
2022-08-27T01:24:55.265Z,14.55
2022-08-27T01:27:26.363Z,13.43
2022-08-27T01:29:54.772Z,15.88
2022-08-27T01:32:25.921Z,18.88
2022-08-27T01:34:54.926Z,15.03
2022-08-27T01:37:24.455Z,16.67
2022-08-27T01:39:55.483Z,15.90
2022-08-27T01:42:27.525Z,21.63
2022-08-27T01:47:28.187Z,17.48
2022-08-27T01:50:00.635Z,20.75
2022-08-27T01:52:31.136Z,20.40
2022-08-27T01:55:00.726Z,15.93
2022-08-27T01:57:28.719Z,19.73
2022-08-27T01:59:57.996Z,12.85
2022-08-27T02:02:27.854Z,19.98
2022-08-27T02:04:55.937Z,21.73
2022-08-27T02:07:24.100Z,18.17
2022-08-27T02:09:53.552Z,15.43
2022-08-27T02:12:23.225Z,15.35
2022-08-27T02:14:52.323Z,14.48
2022-08-27T02:17:20.613Z,14.13
2022-08-27T02:19:48.556Z,13.70
2022-08-27T02:22:17.013Z,14.27
2022-08-27T02:24:44.917Z,16.60
2022-08-27T02:27:13.676Z,14.93
2022-08-27T02:29:43.302Z,17.15
2022-08-27T02:32:17.674Z,15.65
2022-08-27T02:34:52.772Z,13.38
2022-08-27T02:37:21.064Z,17.13
2022-08-27T02:39:49.302Z,13.13
2022-08-27T02:42:17.571Z,16.40
2022-08-27T02:44:47.321Z,18.85
2022-08-27T02:47:16.716Z,14.35
2022-08-27T02:49:45.631Z,17.60
2022-08-27T02:52:13.793Z,15.68
2022-08-27T02:54:42.072Z,17.08
2022-08-27T02:57:10.386Z,14.85
2022-08-27T02:59:38.355Z,19.33
2022-08-27T03:02:07.661Z,14.98
2022-08-27T03:04:35.968Z,14.35
2022-08-27T03:07:04.306Z,17.27
2022-08-27T03:09:32.102Z,15.35
2022-08-27T03:12:00.277Z,19.85
2022-08-27T03:14:28.604Z,15.05
2022-08-27T03:17:16.777Z,10.75
2022-08-27T03:19:45.346Z,17.67
2022-08-27T03:22:14.688Z,15.18
2022-08-27T03:24:42.521Z,14.80
2022-08-27T03:27:10.693Z,17.17
2022-08-27T03:29:38.527Z,14.70
2022-08-27T03:32:07.362Z,18.83
2022-08-27T03:34:35.556Z,15.63
2022-08-27T03:37:04.800Z,13.27
2022-08-27T03:39:32.816Z,21.17
2022-08-27T03:42:00.924Z,16.17
2022-08-27T03:44:28.861Z,13.48
2022-08-27T03:46:56.878Z,15.25
2022-08-27T03:49:25.140Z,14.88
2022-08-27T03:51:55.675Z,14.65
2022-08-27T03:54:25.706Z,21.02
2022-08-27T03:56:54.113Z,17.38
2022-08-27T03:59:21.921Z,13.30
2022-08-27T04:01:49.864Z,13.27
2022-08-27T04:04:18.078Z,16.70
2022-08-27T04:06:45.902Z,14.45
2022-08-27T04:09:13.686Z,12.93
2022-08-27T04:11:43.188Z,14.30
2022-08-27T04:14:25.379Z,16.83
2022-08-27T04:16:57.076Z,14.18
2022-08-27T04:19:28.042Z,21.92
2022-08-27T04:22:01.230Z,15.38
2022-08-27T04:24:30.824Z,14.13
2022-08-27T04:27:00.722Z,15.02
2022-08-27T04:29:28.739Z,14.27
2022-08-27T04:31:57.586Z,15.23
2022-08-27T04:34:26.071Z,13.93
2022-08-27T04:36:57.212Z,13.52
2022-08-27T04:39:26.984Z,13.43
2022-08-27T04:41:57.017Z,13.43
2022-08-27T04:44:27.892Z,12.75
2022-08-27T04:46:57.690Z,12.13
2022-08-27T04:49:27.320Z,13.32
2022-08-27T04:51:56.312Z,14.00
2022-08-27T04:54:32.124Z,12.23
2022-08-27T04:57:00.925Z,13.05
2022-08-27T04:59:30.432Z,15.68
2022-08-27T05:01:58.288Z,11.48
2022-08-27T05:04:26.719Z,12.20
2022-08-27T05:06:54.671Z,17.55
2022-08-27T05:09:24.621Z,12.00
2022-08-27T05:11:56.206Z,11.88
2022-08-27T05:14:25.377Z,13.18
2022-08-27T05:16:54.684Z,12.43
2022-08-27T05:19:22.776Z,15.68
2022-08-27T05:21:53.243Z,10.05
2022-08-27T05:24:21.862Z,12.20
2022-08-27T05:26:50.948Z,13.82
2022-08-27T05:29:19.006Z,11.88
2022-08-27T05:31:47.874Z,14.77
2022-08-27T05:34:24.599Z,11.05
2022-08-27T05:36:55.434Z,12.60
2022-08-27T05:39:23.807Z,14.55
2022-08-27T05:41:52.915Z,15.32
2022-08-27T05:47:08.997Z,11.75
2022-08-27T05:49:38.734Z,19.65
2022-08-27T05:52:09.992Z,19.08
2022-08-27T05:54:38.188Z,11.77
2022-08-27T05:57:06.566Z,11.40
2022-08-27T05:59:52.332Z,11.32
2022-08-27T06:02:20.873Z,11.75
2022-08-27T06:04:50.466Z,11.70
2022-08-27T06:07:19.186Z,11.57
2022-08-27T06:09:47.539Z,13.38
2022-08-27T06:12:15.440Z,12.48
2022-08-27T06:14:43.310Z,10.82
2022-08-27T06:17:11.398Z,12.63
2022-08-27T06:19:39.364Z,13.00
2022-08-27T06:22:09.877Z,18.55
2022-08-27T06:24:40.381Z,14.35
2022-08-27T06:27:11.525Z,14.18
2022-08-27T06:29:40.178Z,14.02
2022-08-27T06:32:09.166Z,9.90
2022-08-27T06:34:38.011Z,14.60
2022-08-27T06:37:06.402Z,10.25
2022-08-27T06:39:37.509Z,15.07
2022-08-27T06:42:06.325Z,12.45
2022-08-27T06:44:35.088Z,11.70
2022-08-27T06:47:03.835Z,13.68
2022-08-27T06:49:33.574Z,11.80
2022-08-27T06:52:02.207Z,13.07
2022-08-27T06:54:30.255Z,10.55
2022-08-27T06:57:01.047Z,15.43
2022-08-27T06:59:29.190Z,12.77
2022-08-27T07:01:57.169Z,9.95
2022-08-27T07:04:27.877Z,13.00
2022-08-27T07:07:02.891Z,14.73
2022-08-27T07:09:32.502Z,16.63
2022-08-27T07:12:02.616Z,17.90
2022-08-27T07:14:35.605Z,23.38
2022-08-27T07:17:06.140Z,19.63
2022-08-27T07:22:09.609Z,14.70
2022-08-27T07:24:38.411Z,17.08
2022-08-27T07:27:10.096Z,15.10
2022-08-27T07:29:38.168Z,15.43
2022-08-27T07:32:06.745Z,11.70
2022-08-27T07:34:35.238Z,18.15
2022-08-27T07:37:03.193Z,14.75
2022-08-27T07:39:30.953Z,12.13
2022-08-27T07:42:16.990Z,13.15
2022-08-27T07:44:46.214Z,10.68
2022-08-27T07:47:14.420Z,19.05
2022-08-27T07:49:42.232Z,14.95
2022-08-27T07:52:10.044Z,12.00
2022-08-27T07:54:38.356Z,12.02
2022-08-27T07:57:06.335Z,15.23
2022-08-27T07:59:34.147Z,12.65
2022-08-27T08:02:03.710Z,14.32
2022-08-27T08:04:31.703Z,10.77
2022-08-27T08:06:59.543Z,10.32
2022-08-27T08:09:27.922Z,12.82
2022-08-27T08:11:55.737Z,12.32
2022-08-27T08:14:23.776Z,16.85
2022-08-27T08:16:51.995Z,17.42
2022-08-27T08:19:22.172Z,10.25
2022-08-27T08:21:52.963Z,16.80
2022-08-27T08:24:28.096Z,16.33
2022-08-27T08:26:55.944Z,12.40
2022-08-27T08:29:23.896Z,15.30
2022-08-27T08:31:52.069Z,9.90
2022-08-27T08:34:21.751Z,9.75
2022-08-27T08:36:54.679Z,12.85
2022-08-27T08:39:24.407Z,11.20
2022-08-27T08:41:54.923Z,10.52
2022-08-27T08:44:31.023Z,13.43
2022-08-27T08:47:04.381Z,17.90
2022-08-27T08:49:44.548Z,13.45
2022-08-27T08:52:31.412Z,16.00
2022-08-27T08:55:08.880Z,13.50
2022-08-27T08:57:43.364Z,9.45
2022-08-27T09:00:13.958Z,13.95
2022-08-27T09:02:50.337Z,15.30
2022-08-27T09:05:20.086Z,15.82
2022-08-27T09:08:28.433Z,10.93
2022-08-27T09:10:57.778Z,13.85
2022-08-27T09:13:30.613Z,11.95
2022-08-27T09:16:04.483Z,15.35
2022-08-27T09:18:36.734Z,10.60
2022-08-27T09:21:18.180Z,11.82
2022-08-27T09:24:08.347Z,16.30
2022-08-27T09:26:39.497Z,14.80
2022-08-27T09:31:56.023Z,12.30
2022-08-27T09:34:25.523Z,13.25
2022-08-27T09:37:01.636Z,13.80
2022-08-27T09:39:35.705Z,15.05
2022-08-27T09:42:05.510Z,15.95
2022-08-27T09:44:34.229Z,13.27
2022-08-27T09:47:04.520Z,10.93
2022-08-27T09:49:34.659Z,14.60
2022-08-27T09:52:04.710Z,17.10
2022-08-27T09:54:43.610Z,18.02
2022-08-27T09:57:13.931Z,20.63
2022-08-27T09:59:50.909Z,12.07
2022-08-27T10:02:21.872Z,14.27
2022-08-27T10:04:52.774Z,11.23
2022-08-27T10:07:33.326Z,17.15
2022-08-27T10:10:10.805Z,13.45
2022-08-27T10:12:50.426Z,14.52
2022-08-27T10:15:18.520Z,14.07
2022-08-27T10:17:57.258Z,21.85
2022-08-27T10:20:33.602Z,11.85
2022-08-27T10:23:16.589Z,17.45
2022-08-27T10:25:55.095Z,14.73
2022-08-27T10:28:38.936Z,16.67
2022-08-27T10:31:18.346Z,17.00
2022-08-27T10:33:58.050Z,17.40
2022-08-27T10:36:35.572Z,20.25
2022-08-27T10:39:14.058Z,14.02
2022-08-27T10:41:46.742Z,14.85
2022-08-27T10:44:37.803Z,23.85
2022-08-27T10:47:23.864Z,18.73
2022-08-27T10:50:01.425Z,18.92
2022-08-27T10:52:34.994Z,14.10
2022-08-27T10:55:12.930Z,17.70
2022-08-27T10:58:01.163Z,13.43
2022-08-27T11:00:40.118Z,12.95
2022-08-27T11:03:13.860Z,16.05
2022-08-27T11:05:46.112Z,15.75
2022-08-27T11:08:18.364Z,16.27
2022-08-27T11:10:50.321Z,19.67
2022-08-27T11:13:26.475Z,14.20
2022-08-27T11:15:57.321Z,18.27
2022-08-27T11:18:36.369Z,15.73
2022-08-27T11:21:11.061Z,17.73
2022-08-27T11:23:45.341Z,15.13
2022-08-27T11:26:15.561Z,9.20
2022-08-27T11:28:47.305Z,21.42
2022-08-27T11:31:21.114Z,11.57
2022-08-27T11:33:56.176Z,20.52
2022-08-27T11:36:43.482Z,14.80
2022-08-27T11:39:25.171Z,14.68
2022-08-27T11:42:07.077Z,14.30
2022-08-27T11:44:42.090Z,12.07
2022-08-27T11:47:13.510Z,11.98
2022-08-27T11:52:22.632Z,14.65
2022-08-27T11:54:52.925Z,16.08
2022-08-27T11:57:31.544Z,17.90
2022-08-27T12:00:01.009Z,11.68
2022-08-27T12:05:09.653Z,11.95
2022-08-27T12:07:40.234Z,11.63
2022-08-27T12:10:19.701Z,13.23
2022-08-27T12:13:02.617Z,14.93
2022-08-27T12:15:48.956Z,12.75
2022-08-27T12:18:37.062Z,15.98
2022-08-27T12:21:13.388Z,14.65
2022-08-27T12:23:51.024Z,14.13
2022-08-27T12:26:31.328Z,15.80
2022-08-27T12:29:24.511Z,16.27
2022-08-27T12:32:04.245Z,12.95
2022-08-27T12:34:43.771Z,13.77
2022-08-27T12:37:13.288Z,13.15
2022-08-27T12:39:49.257Z,14.02
2022-08-27T12:42:21.612Z,18.45
2022-08-27T12:44:57.287Z,16.90
2022-08-27T12:47:25.673Z,14.60
2022-08-27T12:49:58.393Z,16.83
2022-08-27T12:52:45.611Z,11.15
2022-08-27T12:55:23.928Z,12.82
2022-08-27T12:58:01.038Z,12.98
2022-08-27T13:00:37.863Z,12.57
2022-08-27T13:03:23.306Z,15.35
2022-08-27T13:05:56.742Z,9.88
2022-08-27T13:08:29.128Z,16.90
2022-08-27T13:10:58.797Z,10.85
2022-08-27T13:13:26.963Z,12.55
2022-08-27T13:15:58.725Z,13.38
2022-08-27T13:18:29.410Z,15.60
2022-08-27T13:23:31.478Z,16.40
2022-08-27T13:26:07.656Z,14.32
2022-08-27T13:28:38.032Z,17.17
2022-08-27T13:31:10.256Z,16.70
2022-08-27T13:33:40.941Z,9.15
2022-08-27T13:36:09.702Z,10.90
2022-08-27T13:38:39.738Z,17.95
2022-08-27T13:41:10.401Z,12.63
2022-08-27T13:43:42.362Z,14.63
2022-08-27T13:46:15.911Z,8.90
2022-08-27T13:48:45.617Z,17.17
2022-08-27T13:51:15.031Z,10.07
2022-08-27T13:54:03.900Z,10.30
2022-08-27T13:56:34.905Z,13.25
2022-08-27T13:59:12.404Z,15.80
2022-08-27T14:01:55.507Z,13.70
2022-08-27T14:04:26.565Z,20.08
2022-08-27T14:06:55.621Z,11.48
2022-08-27T14:09:26.625Z,12.45
2022-08-27T14:12:03.284Z,11.07
2022-08-27T14:14:37.141Z,13.85
2022-08-27T14:17:20.496Z,18.50
2022-08-27T14:19:49.622Z,22.63
2022-08-27T14:22:18.141Z,15.75
2022-08-27T14:24:45.930Z,9.30
2022-08-27T14:27:16.468Z,13.68
2022-08-27T14:29:44.472Z,16.90
2022-08-27T14:32:13.817Z,12.32
2022-08-27T14:34:42.621Z,14.85
2022-08-27T14:37:10.780Z,13.52
2022-08-27T14:39:39.212Z,15.35
2022-08-27T14:42:10.944Z,14.07
2022-08-27T14:44:39.949Z,22.58
2022-08-27T14:47:10.162Z,14.32
2022-08-27T14:49:41.652Z,17.15
2022-08-27T14:52:11.436Z,10.57
2022-08-27T14:54:40.170Z,15.93
2022-08-27T14:57:09.794Z,15.73
2022-08-27T14:59:38.609Z,12.73
2022-08-27T15:02:13.731Z,19.45
2022-08-27T15:04:44.344Z,9.82
2022-08-27T15:07:16.572Z,26.15
2022-08-27T15:09:45.248Z,17.13
2022-08-27T15:12:25.965Z,15.80
2022-08-27T15:14:55.271Z,16.90
2022-08-27T15:17:34.109Z,14.27
2022-08-27T15:20:07.882Z,11.90
2022-08-27T15:22:37.248Z,14.25
2022-08-27T15:25:08.537Z,10.82
2022-08-27T15:27:39.112Z,16.40
2022-08-27T15:30:09.914Z,16.65
2022-08-27T15:32:42.682Z,17.42
2022-08-27T15:35:15.486Z,26.38
2022-08-27T15:37:44.368Z,19.05
2022-08-27T15:40:14.548Z,15.13
2022-08-27T15:42:43.632Z,20.23
2022-08-27T15:45:13.432Z,20.67
2022-08-27T15:47:41.701Z,16.52
2022-08-27T15:50:10.169Z,24.38
2022-08-27T15:52:42.297Z,28.50
2022-08-27T15:57:42.934Z,18.88
2022-08-27T16:00:12.096Z,18.77
2022-08-27T16:02:42.152Z,22.05
2022-08-27T16:05:10.884Z,20.60
2022-08-27T16:07:39.991Z,16.30
2022-08-27T16:10:09.045Z,14.23
2022-08-27T16:12:36.865Z,20.85
2022-08-27T16:15:05.689Z,13.95
2022-08-27T16:17:35.267Z,20.00
2022-08-27T16:20:03.919Z,19.30
2022-08-27T16:22:31.719Z,19.23
2022-08-27T16:25:01.627Z,17.88
2022-08-27T16:27:29.479Z,13.75
2022-08-27T16:29:57.463Z,28.60
2022-08-27T16:32:25.937Z,17.25
2022-08-27T16:34:55.958Z,18.20
2022-08-27T16:37:24.278Z,15.40
2022-08-27T16:39:53.359Z,17.92
2022-08-27T16:42:23.147Z,19.95
2022-08-27T16:44:51.012Z,23.52
2022-08-27T16:47:19.149Z,15.35
2022-08-27T16:50:05.006Z,17.42
2022-08-27T16:52:33.230Z,24.17
2022-08-27T16:55:01.030Z,14.27
2022-08-27T16:57:30.206Z,21.60
2022-08-27T16:59:58.358Z,16.88
2022-08-27T17:02:31.017Z,16.55
2022-08-27T17:05:17.926Z,17.17
2022-08-27T17:07:49.284Z,19.35
2022-08-27T17:10:18.465Z,16.67
2022-08-27T17:12:49.247Z,18.23
2022-08-27T17:15:18.165Z,24.83
2022-08-27T17:17:46.812Z,17.70
2022-08-27T17:20:15.709Z,18.27
2022-08-27T17:22:44.226Z,30.73
2022-08-27T17:25:12.524Z,20.52
2022-08-27T17:27:40.305Z,19.27
2022-08-27T17:30:10.974Z,16.10
2022-08-27T17:32:43.611Z,19.02
2022-08-27T17:35:14.014Z,21.27
2022-08-27T17:37:42.358Z,20.80
2022-08-27T17:40:11.571Z,18.90
2022-08-27T17:42:40.303Z,21.58
2022-08-27T17:45:11.944Z,22.38
2022-08-27T17:47:40.151Z,25.90
2022-08-27T17:50:09.200Z,27.65
2022-08-27T17:52:39.925Z,25.42
2022-08-27T17:55:09.041Z,25.58
2022-08-27T17:57:40.770Z,28.33
2022-08-27T18:00:14.255Z,22.05
2022-08-27T18:02:44.994Z,18.38
2022-08-27T18:05:14.473Z,22.75
2022-08-27T18:07:42.847Z,22.45
2022-08-27T18:10:12.403Z,28.45
2022-08-27T18:12:42.910Z,16.02
2022-08-27T18:15:16.973Z,18.63
2022-08-27T18:17:45.323Z,21.83
2022-08-27T18:20:15.202Z,22.55
2022-08-27T18:22:48.765Z,20.05
2022-08-27T18:25:18.929Z,26.10
2022-08-27T18:27:49.962Z,19.52
2022-08-27T18:30:20.074Z,18.52
2022-08-27T18:32:47.957Z,21.08
2022-08-27T18:35:18.771Z,21.88
2022-08-27T18:37:47.253Z,26.02
2022-08-27T18:40:17.626Z,24.88
2022-08-27T18:42:46.845Z,25.33
2022-08-27T18:45:17.944Z,28.80
2022-08-27T18:47:48.057Z,25.42
2022-08-27T18:50:19.914Z,36.10
2022-08-27T18:52:50.272Z,29.58
2022-08-27T18:55:21.369Z,28.52
2022-08-27T18:57:50.132Z,25.45
2022-08-27T19:00:20.068Z,22.38
2022-08-27T19:02:52.737Z,31.08
2022-08-27T19:05:25.077Z,30.70
2022-08-27T19:07:53.457Z,27.92
2022-08-27T19:10:21.929Z,29.60
2022-08-27T19:12:50.013Z,35.30
2022-08-27T19:15:18.397Z,35.47
2022-08-27T19:17:50.958Z,39.63
2022-08-27T19:20:20.160Z,25.88
2022-08-27T19:22:48.792Z,31.33
2022-08-27T19:25:17.604Z,23.63
2022-08-27T19:27:47.034Z,26.98
2022-08-27T19:30:17.283Z,30.55
2022-08-27T19:32:45.566Z,27.85
2022-08-27T19:35:15.382Z,24.08
2022-08-27T19:37:52.705Z,28.83
2022-08-27T19:40:22.693Z,26.23
2022-08-27T19:42:51.528Z,31.10
2022-08-27T19:45:23.779Z,30.70
2022-08-27T19:47:53.156Z,37.80
2022-08-27T19:50:23.829Z,41.00
2022-08-27T19:52:52.437Z,27.52
2022-08-27T19:55:21.171Z,27.98
2022-08-27T19:57:49.610Z,31.35
2022-08-27T20:00:20.011Z,26.80
2022-08-27T20:02:50.598Z,23.17
2022-08-27T20:05:20.465Z,26.88
2022-08-27T20:07:52.098Z,18.67
2022-08-27T20:10:23.563Z,19.05
2022-08-27T20:13:00.133Z,20.90
2022-08-27T20:15:28.210Z,21.70
2022-08-27T20:17:56.032Z,19.33
2022-08-27T20:20:25.413Z,20.67
2022-08-27T20:22:55.805Z,22.17
2022-08-27T20:25:25.014Z,18.15
2022-08-27T20:27:53.842Z,21.02
2022-08-27T20:30:25.585Z,29.17
2022-08-27T20:32:53.388Z,26.20
2022-08-27T20:35:23.053Z,22.92
2022-08-27T20:37:51.441Z,33.35
2022-08-27T20:40:23.583Z,26.95
2022-08-27T20:42:51.737Z,21.70
2022-08-27T20:45:20.192Z,27.85
2022-08-27T20:47:49.907Z,23.55
2022-08-27T20:50:19.249Z,26.65
2022-08-27T20:52:47.977Z,18.00
2022-08-27T20:55:17.371Z,16.20
2022-08-27T20:58:04.526Z,13.55
2022-08-27T21:00:40.530Z,11.57
2022-08-27T21:03:09.252Z,14.80
2022-08-27T21:05:37.921Z,19.40
2022-08-27T21:08:07.425Z,10.77
2022-08-27T21:10:36.057Z,13.13
2022-08-27T21:13:08.056Z,10.85
2022-08-27T21:15:38.216Z,15.82
2022-08-27T21:18:06.602Z,15.02
2022-08-27T21:20:34.658Z,13.90
2022-08-27T21:23:02.833Z,14.70
2022-08-27T21:25:30.715Z,15.23
2022-08-27T21:28:00.276Z,17.38
2022-08-27T21:30:29.708Z,11.63
2022-08-27T21:32:57.810Z,12.73
2022-08-27T21:35:27.410Z,15.75
2022-08-27T21:37:56.184Z,10.70
2022-08-27T21:40:25.222Z,13.98
2022-08-27T21:42:53.692Z,13.02
2022-08-27T21:45:21.850Z,13.43
2022-08-27T21:47:52.022Z,13.55
2022-08-27T21:50:21.130Z,17.17
2022-08-27T21:52:50.022Z,13.23
2022-08-27T21:55:18.694Z,15.52
2022-08-27T21:57:46.591Z,14.43
2022-08-27T22:00:36.640Z,17.08
2022-08-27T22:03:10.452Z,16.58
2022-08-27T22:05:40.609Z,11.27
2022-08-27T22:08:09.318Z,12.55
2022-08-27T22:10:37.656Z,11.75
2022-08-27T22:13:06.287Z,12.52
2022-08-27T22:15:34.713Z,21.80
2022-08-27T22:18:03.318Z,17.95
2022-08-27T22:20:33.530Z,11.90
2022-08-27T22:23:01.931Z,10.18
2022-08-27T22:25:29.714Z,13.25
2022-08-27T22:27:57.674Z,11.60
2022-08-27T22:30:26.177Z,13.18
2022-08-27T22:32:54.033Z,18.25
2022-08-27T22:35:22.689Z,16.20
2022-08-27T22:37:53.457Z,16.70
2022-08-27T22:40:24.270Z,11.15
2022-08-27T22:42:54.720Z,12.43
2022-08-27T22:45:23.144Z,12.40
2022-08-27T22:47:51.038Z,11.38
2022-08-27T22:50:19.953Z,17.10
2022-08-27T22:52:49.189Z,13.23
2022-08-27T22:55:20.516Z,21.83
2022-08-27T22:57:49.577Z,18.30
2022-08-27T23:00:20.324Z,18.02
2022-08-27T23:02:48.141Z,15.60
2022-08-27T23:05:17.101Z,16.90
2022-08-27T23:07:45.631Z,15.07
2022-08-27T23:10:17.046Z,17.48
2022-08-27T23:12:48.094Z,19.92
2022-08-27T23:15:18.407Z,16.00
2022-08-27T23:17:46.766Z,18.67
2022-08-27T23:20:14.833Z,16.85
2022-08-27T23:22:43.031Z,14.57
2022-08-27T23:25:30.079Z,21.17
2022-08-27T23:27:59.871Z,11.70
2022-08-27T23:30:28.203Z,18.23
2022-08-27T23:32:57.188Z,15.73
2022-08-27T23:35:27.767Z,12.18
2022-08-27T23:37:57.202Z,18.50
2022-08-27T23:40:25.904Z,20.58
2022-08-27T23:42:54.866Z,17.20
2022-08-27T23:45:26.591Z,17.60
2022-08-27T23:47:54.672Z,12.40
2022-08-27T23:50:34.260Z,19.60
2022-08-27T23:53:02.814Z,16.55
2022-08-27T23:55:30.909Z,13.10
2022-08-27T23:57:58.818Z,19.85
